Terminal Aerodrome Forecast
Issued by NWS Omaha/Valley, NE

Home | Current Version | Previous Version | Text Only | Print | Product List | Glossary On
Versions: 1 2 3 4 5 6 7 8 9 10 11 12 13 14 15 16 17 18 19 20 21 22 23 24 25 26 27 28 29 30 31 32 33 34 35 36 37
000
FTUS43 KOAX 040340 AAA
TAFLNK
TAF AMD
KLNK 040340Z 0404/0424 36010KT P6SM SCT035 BKN250
     FM040900 36008KT P6SM BKN060 OVC100
      TEMPO 0409/0411 6SM -SN OVC050
     FM041200 34006KT P6SM BKN250
     FM041800 21015KT P6SM SCT250=

USA.gov is the U.S. government's official web portal to all federal, state and local government web resources and services.